sensor_id;sensor_type;location;lat;lon;timestamp;pressure;altitude;pressure_sealevel;temperature;humidity
49627;BME280;35527;54.616;39.786;2023-12-22T00:00:07;97999.66;;;2.52;100.00
49627;BME280;35527;54.616;39.786;2023-12-22T00:03:15;98002.09;;;2.55;100.00
49627;BME280;35527;54.616;39.786;2023-12-22T00:06:19;98009.69;;;2.08;100.00
49627;BME280;35527;54.616;39.786;2023-12-22T00:09:23;97994.63;;;2.25;100.00
49627;BME280;35527;54.616;39.786;2023-12-22T00:12:28;97992.03;;;2.27;100.00
49627;BME280;35527;54.616;39.786;2023-12-22T00:15:32;97997.13;;;2.27;100.00
49627;BME280;35527;54.616;39.786;2023-12-22T00:18:39;97998.25;;;1.95;100.00
49627;BME280;35527;54.616;39.786;2023-12-22T00:21:42;97996.16;;;1.81;100.00
49627;BME280;35527;54.616;39.786;2023-12-22T00:24:47;97985.75;;;2.12;100.00
49627;BME280;35527;54.616;39.786;2023-12-22T00:28:15;97991.34;;;1.97;100.00
49627;BME280;35527;54.616;39.786;2023-12-22T00:31:19;97975.41;;;1.92;100.00
49627;BME280;35527;54.616;39.786;2023-12-22T00:34:22;97995.47;;;1.49;100.00
49627;BME280;35527;54.616;39.786;2023-12-22T00:37:27;97986.31;;;1.70;100.00
49627;BME280;35527;54.616;39.786;2023-12-22T00:40:34;97977.84;;;1.68;100.00
49627;BME280;35527;54.616;39.786;2023-12-22T00:43:37;97966.91;;;1.66;100.00
49627;BME280;35527;54.616;39.786;2023-12-22T00:46:40;97978.38;;;2.52;100.00
49627;BME280;35527;54.616;39.786;2023-12-22T00:49:46;97975.16;;;1.73;100.00
49627;BME280;35527;54.616;39.786;2023-12-22T00:52:49;97966.94;;;1.65;100.00
49627;BME280;35527;54.616;39.786;2023-12-22T00:55:53;97939.25;;;1.27;100.00
49627;BME280;35527;54.616;39.786;2023-12-22T00:58:55;97971.25;;;1.36;100.00
49627;BME280;35527;54.616;39.786;2023-12-22T01:01:59;97969.41;;;1.41;100.00
49627;BME280;35527;54.616;39.786;2023-12-22T01:05:04;97963.97;;;1.52;100.00
49627;BME280;35527;54.616;39.786;2023-12-22T01:08:09;97954.22;;;1.38;100.00
49627;BME280;35527;54.616;39.786;2023-12-22T01:11:12;97954.44;;;1.30;100.00
49627;BME280;35527;54.616;39.786;2023-12-22T01:14:18;97956.91;;;1.33;100.00
49627;BME280;35527;54.616;39.786;2023-12-22T01:17:22;97950.97;;;1.33;100.00
49627;BME280;35527;54.616;39.786;2023-12-22T01:20:27;97967.41;;;1.23;100.00
49627;BME280;35527;54.616;39.786;2023-12-22T01:23:30;97975.03;;;1.24;100.00
49627;BME280;35527;54.616;39.786;2023-12-22T01:26:35;97963.19;;;0.95;100.00
49627;BME280;35527;54.616;39.786;2023-12-22T01:29:37;97959.47;;;1.05;100.00
49627;BME280;35527;54.616;39.786;2023-12-22T01:32:42;97968.81;;;1.33;100.00
49627;BME280;35527;54.616;39.786;2023-12-22T01:35:45;97972.44;;;0.98;100.00
49627;BME280;35527;54.616;39.786;2023-12-22T01:38:48;97951.50;;;0.88;100.00
49627;BME280;35527;54.616;39.786;2023-12-22T01:41:53;97979.63;;;1.13;100.00
49627;BME280;35527;54.616;39.786;2023-12-22T01:44:57;97971.94;;;1.15;100.00
49627;BME280;35527;54.616;39.786;2023-12-22T01:48:00;97969.03;;;0.97;100.00
49627;BME280;35527;54.616;39.786;2023-12-22T01:51:06;97951.31;;;0.94;100.00
49627;BME280;35527;54.616;39.786;2023-12-22T01:54:10;97966.59;;;0.94;100.00
49627;BME280;35527;54.616;39.786;2023-12-22T01:57:16;97959.81;;;0.95;100.00
49627;BME280;35527;54.616;39.786;2023-12-22T02:00:24;97959.63;;;1.01;100.00
49627;BME280;35527;54.616;39.786;2023-12-22T02:03:28;97959.47;;;0.77;100.00
49627;BME280;35527;54.616;39.786;2023-12-22T02:06:34;97966.59;;;0.94;100.00
49627;BME280;35527;54.616;39.786;2023-12-22T02:09:38;97948.63;;;0.71;100.00
49627;BME280;35527;54.616;39.786;2023-12-22T02:12:42;97966.94;;;0.83;100.00
49627;BME280;35527;54.616;39.786;2023-12-22T02:15:47;97987.41;;;0.80;100.00
49627;BME280;35527;54.616;39.786;2023-12-22T02:18:55;97974.91;;;0.71;100.00
49627;BME280;35527;54.616;39.786;2023-12-22T02:22:03;97979.69;;;0.82;100.00
49627;BME280;35527;54.616;39.786;2023-12-22T02:25:09;97979.44;;;0.91;100.00
49627;BME280;35527;54.616;39.786;2023-12-22T02:28:16;97962.81;;;0.79;100.00
49627;BME280;35527;54.616;39.786;2023-12-22T02:31:37;97976.88;;;0.91;100.00
49627;BME280;35527;54.616;39.786;2023-12-22T02:34:41;97977.81;;;0.88;100.00
49627;BME280;35527;54.616;39.786;2023-12-22T02:37:48;97981.28;;;0.86;100.00
49627;BME280;35527;54.616;39.786;2023-12-22T02:40:52;97981.72;;;0.71;100.00
49627;BME280;35527;54.616;39.786;2023-12-22T02:43:56;97974.25;;;0.66;100.00
49627;BME280;35527;54.616;39.786;2023-12-22T02:46:59;97975.63;;;0.76;100.00
49627;BME280;35527;54.616;39.786;2023-12-22T02:50:04;97973.69;;;0.84;100.00
49627;BME280;35527;54.616;39.786;2023-12-22T02:53:10;97984.28;;;0.41;100.00
49627;BME280;35527;54.616;39.786;2023-12-22T02:56:12;97977.19;;;0.51;100.00
49627;BME280;35527;54.616;39.786;2023-12-22T02:59:19;97969.59;;;0.19;100.00
49627;BME280;35527;54.616;39.786;2023-12-22T03:02:25;97983.19;;;0.50;100.00
49627;BME280;35527;54.616;39.786;2023-12-22T03:05:35;97981.47;;;0.50;100.00
49627;BME280;35527;54.616;39.786;2023-12-22T03:08:39;97977.56;;;0.68;100.00
49627;BME280;35527;54.616;39.786;2023-12-22T03:11:43;97979.41;;;0.93;100.00
49627;BME280;35527;54.616;39.786;2023-12-22T03:14:49;97977.28;;;0.77;100.00
49627;BME280;35527;54.616;39.786;2023-12-22T03:17:54;97964.06;;;0.66;100.00
49627;BME280;35527;54.616;39.786;2023-12-22T03:20:57;97977.66;;;0.95;100.00
49627;BME280;35527;54.616;39.786;2023-12-22T03:23:59;97977.50;;;1.26;100.00
49627;BME280;35527;54.616;39.786;2023-12-22T03:27:06;97993.50;;;1.03;100.00
49627;BME280;35527;54.616;39.786;2023-12-22T03:30:10;97984.38;;;0.96;100.00
49627;BME280;35527;54.616;39.786;2023-12-22T03:33:13;97978.13;;;0.78;100.00
49627;BME280;35527;54.616;39.786;2023-12-22T03:36:16;97964.31;;;0.86;100.00
49627;BME280;35527;54.616;39.786;2023-12-22T03:39:20;97947.00;;;0.68;100.00
49627;BME280;35527;54.616;39.786;2023-12-22T03:42:26;97951.72;;;1.08;100.00
49627;BME280;35527;54.616;39.786;2023-12-22T03:45:30;97974.50;;;0.86;100.00
49627;BME280;35527;54.616;39.786;2023-12-22T03:48:33;97954.66;;;0.68;100.00
49627;BME280;35527;54.616;39.786;2023-12-22T03:51:39;97977.00;;;0.58;100.00
49627;BME280;35527;54.616;39.786;2023-12-22T03:54:45;97960.81;;;0.61;100.00
49627;BME280;35527;54.616;39.786;2023-12-22T03:57:47;97974.63;;;0.82;100.00
49627;BME280;35527;54.616;39.786;2023-12-22T04:00:52;97967.97;;;0.76;100.00
49627;BME280;35527;54.616;39.786;2023-12-22T04:03:57;97959.63;;;0.71;100.00
49627;BME280;35527;54.616;39.786;2023-12-22T04:07:13;97972.34;;;0.73;100.00
49627;BME280;35527;54.616;39.786;2023-12-22T04:10:17;97966.16;;;0.81;100.00
49627;BME280;35527;54.616;39.786;2023-12-22T04:13:23;97966.16;;;0.81;100.00
49627;BME280;35527;54.616;39.786;2023-12-22T04:16:31;97957.81;;;0.76;100.00
49627;BME280;35527;54.616;39.786;2023-12-22T04:19:35;97946.97;;;0.70;100.00
49627;BME280;35527;54.616;39.786;2023-12-22T04:22:40;97967.72;;;1.13;100.00
49627;BME280;35527;54.616;39.786;2023-12-22T04:25:46;97968.25;;;0.67;100.00
49627;BME280;35527;54.616;39.786;2023-12-22T04:28:51;97960.47;;;0.43;100.00
49627;BME280;35527;54.616;39.786;2023-12-22T04:31:59;97955.31;;;0.45;100.00
49627;BME280;35527;54.616;39.786;2023-12-22T04:35:02;97950.22;;;0.75;100.00
49627;BME280;35527;54.616;39.786;2023-12-22T04:38:05;97957.59;;;1.39;100.00
49627;BME280;35527;54.616;39.786;2023-12-22T04:41:10;97966.25;;;0.77;100.00
49627;BME280;35527;54.616;39.786;2023-12-22T04:44:15;97965.22;;;0.54;100.00
49627;BME280;35527;54.616;39.786;2023-12-22T04:47:18;97963.44;;;1.14;100.00
49627;BME280;35527;54.616;39.786;2023-12-22T04:50:21;97961.78;;;1.13;100.00
49627;BME280;35527;54.616;39.786;2023-12-22T04:53:26;97960.66;;;1.22;100.00
49627;BME280;35527;54.616;39.786;2023-12-22T04:56:32;97974.31;;;0.91;100.00
49627;BME280;35527;54.616;39.786;2023-12-22T04:59:35;97971.16;;;0.84;100.00
49627;BME280;35527;54.616;39.786;2023-12-22T05:02:39;97971.06;;;0.87;100.00
49627;BME280;35527;54.616;39.786;2023-12-22T05:05:43;97959.47;;;1.05;100.00
49627;BME280;35527;54.616;39.786;2023-12-22T05:08:49;97968.09;;;1.01;100.00
49627;BME280;35527;54.616;39.786;2023-12-22T05:11:52;97959.09;;;0.61;100.00
49627;BME280;35527;54.616;39.786;2023-12-22T05:14:57;97970.00;;;0.95;100.00
49627;BME280;35527;54.616;39.786;2023-12-22T05:18:02;97958.53;;;0.80;100.00
49627;BME280;35527;54.616;39.786;2023-12-22T05:21:06;97949.91;;;0.56;100.00
49627;BME280;35527;54.616;39.786;2023-12-22T05:24:08;97976.56;;;0.42;100.00
49627;BME280;35527;54.616;39.786;2023-12-22T05:27:11;97965.91;;;0.61;100.00
49627;BME280;35527;54.616;39.786;2023-12-22T05:30:15;97972.13;;;0.51;100.00
49627;BME280;35527;54.616;39.786;2023-12-22T05:33:21;97967.75;;;0.54;100.00
49627;BME280;35527;54.616;39.786;2023-12-22T05:36:24;97984.09;;;0.77;100.00
49627;BME280;35527;54.616;39.786;2023-12-22T05:39:31;97960.13;;;0.84;100.00
49627;BME280;35527;54.616;39.786;2023-12-22T05:42:38;97946.06;;;0.72;100.00
49627;BME280;35527;54.616;39.786;2023-12-22T05:45:41;97964.53;;;-0.13;100.00
49627;BME280;35527;54.616;39.786;2023-12-22T05:48:45;97966.72;;;0.01;100.00
49627;BME280;35527;54.616;39.786;2023-12-22T05:51:48;97966.03;;;-0.06;100.00
49627;BME280;35527;54.616;39.786;2023-12-22T05:54:50;97981.81;;;0.07;100.00
49627;BME280;35527;54.616;39.786;2023-12-22T05:57:55;97959.25;;;-0.06;100.00
49627;BME280;35527;54.616;39.786;2023-12-22T06:00:58;97982.97;;;-0.05;100.00
49627;BME280;35527;54.616;39.786;2023-12-22T06:04:02;97968.44;;;0.00;100.00
49627;BME280;35527;54.616;39.786;2023-12-22T06:07:05;97975.19;;;-0.01;100.00
49627;BME280;35527;54.616;39.786;2023-12-22T06:10:10;97951.00;;;-0.14;100.00
49627;BME280;35527;54.616;39.786;2023-12-22T06:13:14;97975.09;;;0.04;100.00
49627;BME280;35527;54.616;39.786;2023-12-22T06:16:18;97978.09;;;-0.14;100.00
49627;BME280;35527;54.616;39.786;2023-12-22T06:19:22;97968.94;;;0.11;100.00
49627;BME280;35527;54.616;39.786;2023-12-22T06:22:30;97982.66;;;-0.26;100.00
49627;BME280;35527;54.616;39.786;2023-12-22T06:25:33;97984.50;;;0.01;100.00
49627;BME280;35527;54.616;39.786;2023-12-22T06:28:36;97968.44;;;0.00;100.00
49627;BME280;35527;54.616;39.786;2023-12-22T06:31:40;97993.81;;;0.02;100.00
49627;BME280;35527;54.616;39.786;2023-12-22T06:34:44;97999.47;;;0.11;100.00
49627;BME280;35527;54.616;39.786;2023-12-22T06:37:46;97979.13;;;0.11;100.00
49627;BME280;35527;54.616;39.786;2023-12-22T06:40:51;97977.75;;;0.31;100.00
49627;BME280;35527;54.616;39.786;2023-12-22T06:43:55;97977.47;;;0.41;100.00
49627;BME280;35527;54.616;39.786;2023-12-22T06:47:01;97984.16;;;0.14;100.00
49627;BME280;35527;54.616;39.786;2023-12-22T06:50:03;97959.94;;;-0.01;100.00
49627;BME280;35527;54.616;39.786;2023-12-22T06:53:10;97943.75;;;0.04;100.00
49627;BME280;35527;54.616;39.786;2023-12-22T06:56:25;97986.06;;;0.37;100.00
49627;BME280;35527;54.616;39.786;2023-12-22T06:59:29;97962.84;;;0.18;100.00
49627;BME280;35527;54.616;39.786;2023-12-22T07:02:36;97986.81;;;0.41;100.00
49627;BME280;35527;54.616;39.786;2023-12-22T07:05:41;97984.91;;;0.49;100.00
49627;BME280;35527;54.616;39.786;2023-12-22T07:12:23;97985.38;;;0.31;100.00
49627;BME280;35527;54.616;39.786;2023-12-22T07:15:26;97992.47;;;0.19;100.00
49627;BME280;35527;54.616;39.786;2023-12-22T07:18:31;97972.56;;;0.35;100.00
49627;BME280;35527;54.616;39.786;2023-12-22T07:21:34;97981.53;;;0.77;100.00
49627;BME280;35527;54.616;39.786;2023-12-22T07:24:37;97974.34;;;0.32;100.00
49627;BME280;35527;54.616;39.786;2023-12-22T07:27:40;97966.34;;;0.75;100.00
49627;BME280;35527;54.616;39.786;2023-12-22T07:30:45;97970.66;;;1.00;100.00
49627;BME280;35527;54.616;39.786;2023-12-22T07:33:49;97972.44;;;0.98;100.00
49627;BME280;35527;54.616;39.786;2023-12-22T07:36:52;97969.31;;;0.89;100.00
49627;BME280;35527;54.616;39.786;2023-12-22T07:39:57;97960.44;;;1.01;100.00
49627;BME280;35527;54.616;39.786;2023-12-22T07:43:02;97965.84;;;0.92;100.00
49627;BME280;35527;54.616;39.786;2023-12-22T07:46:07;97976.75;;;0.96;100.00
49627;BME280;35527;54.616;39.786;2023-12-22T07:49:14;97947.56;;;0.50;100.00
49627;BME280;35527;54.616;39.786;2023-12-22T07:52:18;97956.47;;;0.63;100.00
49627;BME280;35527;54.616;39.786;2023-12-22T07:55:47;97952.97;;;0.67;100.00
49627;BME280;35527;54.616;39.786;2023-12-22T07:58:50;97961.94;;;0.51;100.00
49627;BME280;35527;54.616;39.786;2023-12-22T08:02:01;97944.75;;;0.87;100.00
49627;BME280;35527;54.616;39.786;2023-12-22T08:05:04;97951.63;;;1.11;100.00
49627;BME280;35527;54.616;39.786;2023-12-22T08:08:07;97935.06;;;1.26;100.00
49627;BME280;35527;54.616;39.786;2023-12-22T08:11:10;97927.34;;;1.01;100.00
49627;BME280;35527;54.616;39.786;2023-12-22T08:14:18;97921.38;;;1.29;100.00
49627;BME280;35527;54.616;39.786;2023-12-22T08:17:22;97925.84;;;0.94;100.00
49627;BME280;35527;54.616;39.786;2023-12-22T08:20:28;97915.41;;;1.03;100.00
49627;BME280;35527;54.616;39.786;2023-12-22T08:23:32;97915.22;;;1.09;100.00
49627;BME280;35527;54.616;39.786;2023-12-22T08:26:42;97926.81;;;1.18;100.00
49627;BME280;35527;54.616;39.786;2023-12-22T08:29:44;97905.88;;;1.08;100.00
49627;BME280;35527;54.616;39.786;2023-12-22T08:32:51;97887.66;;;1.21;100.00
49627;BME280;35527;54.616;39.786;2023-12-22T08:35:54;97873.03;;;1.01;100.00
49627;BME280;35527;54.616;39.786;2023-12-22T08:38:58;97885.63;;;0.77;100.00
49627;BME280;35527;54.616;39.786;2023-12-22T08:42:02;97909.44;;;0.76;100.00
49627;BME280;35527;54.616;39.786;2023-12-22T08:45:07;97890.25;;;0.66;100.00
49627;BME280;35527;54.616;39.786;2023-12-22T08:48:10;97902.25;;;0.61;100.00
49627;BME280;35527;54.616;39.786;2023-12-22T08:51:19;97893.53;;;0.68;100.00
49627;BME280;35527;54.616;39.786;2023-12-22T08:54:22;97882.19;;;0.52;100.00
49627;BME280;35527;54.616;39.786;2023-12-22T08:57:27;97887.28;;;0.52;100.00
49627;BME280;35527;54.616;39.786;2023-12-22T09:00:29;97874.53;;;0.24;100.00
49627;BME280;35527;54.616;39.786;2023-12-22T09:03:33;97898.72;;;0.37;100.00
49627;BME280;35527;54.616;39.786;2023-12-22T09:06:38;97894.69;;;0.30;100.00
49627;BME280;35527;54.616;39.786;2023-12-22T09:09:44;97893.47;;;0.43;100.00
49627;BME280;35527;54.616;39.786;2023-12-22T09:12:47;97899.78;;;0.30;100.00
49627;BME280;35527;54.616;39.786;2023-12-22T09:15:52;97901.72;;;0.20;100.00
49627;BME280;35527;54.616;39.786;2023-12-22T09:18:56;97892.72;;;0.10;100.00
49627;BME280;35527;54.616;39.786;2023-12-22T09:21:59;97878.94;;;-0.14;100.00
49627;BME280;35527;54.616;39.786;2023-12-22T09:25:02;97866.75;;;-0.02;100.00
49627;BME280;35527;54.616;39.786;2023-12-22T09:28:08;97876.13;;;-0.04;100.00
49627;BME280;35527;54.616;39.786;2023-12-22T09:31:13;97885.44;;;0.27;100.00
49627;BME280;35527;54.616;39.786;2023-12-22T09:34:16;97879.13;;;0.40;100.00
49627;BME280;35527;54.616;39.786;2023-12-22T09:37:20;97886.84;;;0.37;100.00
49627;BME280;35527;54.616;39.786;2023-12-22T09:40:23;97906.75;;;0.23;100.00
49627;BME280;35527;54.616;39.786;2023-12-22T09:43:34;97876.53;;;0.42;100.00
49627;BME280;35527;54.616;39.786;2023-12-22T09:46:40;97876.06;;;0.57;100.00
49627;BME280;35527;54.616;39.786;2023-12-22T09:49:44;97865.41;;;0.73;100.00
49627;BME280;35527;54.616;39.786;2023-12-22T09:52:50;97892.75;;;0.38;100.00
49627;BME280;35527;54.616;39.786;2023-12-22T09:55:54;97877.91;;;0.52;100.00
49627;BME280;35527;54.616;39.786;2023-12-22T09:58:57;97846.66;;;0.19;100.00
49627;BME280;35527;54.616;39.786;2023-12-22T10:02:02;97872.88;;;0.51;100.00
49627;BME280;35527;54.616;39.786;2023-12-22T10:05:09;97860.13;;;-0.07;100.00
49627;BME280;35527;54.616;39.786;2023-12-22T10:08:18;97890.66;;;0.52;100.00
49627;BME280;35527;54.616;39.786;2023-12-22T10:11:24;97857.72;;;0.18;100.00
49627;BME280;35527;54.616;39.786;2023-12-22T10:14:29;97860.78;;;0.29;100.00
49627;BME280;35527;54.616;39.786;2023-12-22T10:17:35;97869.53;;;0.20;100.00
49627;BME280;35527;54.616;39.786;2023-12-22T10:20:40;97868.28;;;0.34;100.00
49627;BME280;35527;54.616;39.786;2023-12-22T10:23:43;97865.63;;;0.37;100.00
49627;BME280;35527;54.616;39.786;2023-12-22T10:26:56;97831.41;;;0.19;100.00
49627;BME280;35527;54.616;39.786;2023-12-22T10:30:32;97845.63;;;0.26;100.00
49627;BME280;35527;54.616;39.786;2023-12-22T10:33:45;97849.50;;;0.38;100.00
49627;BME280;35527;54.616;39.786;2023-12-22T10:36:51;97842.09;;;0.30;100.00
49627;BME280;35527;54.616;39.786;2023-12-22T10:39:54;97836.44;;;0.49;100.00
49627;BME280;35527;54.616;39.786;2023-12-22T10:42:59;97849.22;;;0.75;100.00
49627;BME280;35527;54.616;39.786;2023-12-22T10:46:07;97829.69;;;0.76;100.00
49627;BME280;35527;54.616;39.786;2023-12-22T10:49:16;97818.97;;;0.66;100.00
49627;BME280;35527;54.616;39.786;2023-12-22T10:52:19;97829.22;;;0.63;100.00
49627;BME280;35527;54.616;39.786;2023-12-22T10:55:23;97803.97;;;0.57;100.00
49627;BME280;35527;54.616;39.786;2023-12-22T10:58:28;97810.53;;;0.90;100.00
49627;BME280;35527;54.616;39.786;2023-12-22T11:01:33;97807.16;;;0.90;100.00
49627;BME280;35527;54.616;39.786;2023-12-22T11:04:42;97820.03;;;1.12;100.00
49627;BME280;35527;54.616;39.786;2023-12-22T11:07:53;97807.47;;;1.31;100.00
49627;BME280;35527;54.616;39.786;2023-12-22T11:10:58;97809.00;;;1.60;100.00
49627;BME280;35527;54.616;39.786;2023-12-22T11:14:09;97795.66;;;1.77;100.00
49627;BME280;35527;54.616;39.786;2023-12-22T11:17:13;97794.94;;;1.73;100.00
49627;BME280;35527;54.616;39.786;2023-12-22T11:20:20;97787.78;;;1.60;100.00
49627;BME280;35527;54.616;39.786;2023-12-22T11:23:30;97776.19;;;1.74;100.00
49627;BME280;35527;54.616;39.786;2023-12-22T11:26:35;97799.47;;;1.89;100.00
49627;BME280;35527;54.616;39.786;2023-12-22T11:29:40;97776.28;;;1.73;100.00
49627;BME280;35527;54.616;39.786;2023-12-22T11:32:45;97791.31;;;1.32;100.00
49627;BME280;35527;54.616;39.786;2023-12-22T11:35:50;97792.63;;;1.44;100.00
49627;BME280;35527;54.616;39.786;2023-12-22T11:38:55;97765.06;;;1.30;100.00
49627;BME280;35527;54.616;39.786;2023-12-22T11:42:00;97778.88;;;1.71;100.00
49627;BME280;35527;54.616;39.786;2023-12-22T11:45:09;97778.81;;;1.73;100.00
49627;BME280;35527;54.616;39.786;2023-12-22T11:48:15;97783.13;;;1.71;100.00
49627;BME280;35527;54.616;39.786;2023-12-22T11:51:19;97784.81;;;1.72;100.00
49627;BME280;35527;54.616;39.786;2023-12-22T11:54:49;97783.66;;;1.80;100.00
49627;BME280;35527;54.616;39.786;2023-12-22T11:57:54;97774.66;;;1.70;100.00
49627;BME280;35527;54.616;39.786;2023-12-22T12:01:02;97744.41;;;1.61;100.00
49627;BME280;35527;54.616;39.786;2023-12-22T12:04:09;97780.31;;;1.55;100.00
49627;BME280;35527;54.616;39.786;2023-12-22T12:14:00;97777.09;;;1.50;100.00
49627;BME280;35527;54.616;39.786;2023-12-22T12:17:18;97744.91;;;1.47;100.00
49627;BME280;35527;54.616;39.786;2023-12-22T12:20:22;97770.25;;;1.75;100.00
49627;BME280;35527;54.616;39.786;2023-12-22T12:23:29;97756.31;;;1.84;100.00
49627;BME280;35527;54.616;39.786;2023-12-22T12:26:40;97751.13;;;1.86;100.00
49627;BME280;35527;54.616;39.786;2023-12-22T12:29:42;97741.38;;;1.75;100.00
49627;BME280;35527;54.616;39.786;2023-12-22T12:32:48;97716.81;;;1.94;100.00
49627;BME280;35527;54.616;39.786;2023-12-22T12:35:56;97727.19;;;1.90;100.00
49627;BME280;35527;54.616;39.786;2023-12-22T12:39:06;97716.22;;;1.88;100.00
49627;BME280;35527;54.616;39.786;2023-12-22T12:42:15;97717.47;;;1.77;100.00
49627;BME280;35527;54.616;39.786;2023-12-22T12:45:22;97715.00;;;1.98;100.00
49627;BME280;35527;54.616;39.786;2023-12-22T12:48:32;97721.97;;;1.93;100.00
49627;BME280;35527;54.616;39.786;2023-12-22T12:51:43;97705.63;;;1.98;100.00
49627;BME280;35527;54.616;39.786;2023-12-22T12:54:46;97693.94;;;1.93;100.00
49627;BME280;35527;54.616;39.786;2023-12-22T12:57:50;97692.31;;;1.90;100.00
49627;BME280;35527;54.616;39.786;2023-12-22T13:01:09;97698.47;;;1.85;100.00
49627;BME280;35527;54.616;39.786;2023-12-22T13:04:17;97698.72;;;1.78;100.00
49627;BME280;35527;54.616;39.786;2023-12-22T13:07:25;97696.94;;;1.80;100.00
49627;BME280;35527;54.616;39.786;2023-12-22T13:10:28;97683.94;;;1.65;100.00
49627;BME280;35527;54.616;39.786;2023-12-22T13:13:49;97675.38;;;1.89;100.00
49627;BME280;35527;54.616;39.786;2023-12-22T13:16:56;97684.09;;;1.84;100.00
49627;BME280;35527;54.616;39.786;2023-12-22T13:20:00;97671.38;;;1.82;100.00
49627;BME280;35527;54.616;39.786;2023-12-22T13:23:03;97675.66;;;1.82;100.00
49627;BME280;35527;54.616;39.786;2023-12-22T13:26:18;97663.91;;;1.77;100.00
49627;BME280;35527;54.616;39.786;2023-12-22T13:29:23;97677.31;;;1.83;100.00
49627;BME280;35527;54.616;39.786;2023-12-22T13:32:26;97666.47;;;1.77;100.00
49627;BME280;35527;54.616;39.786;2023-12-22T13:35:35;97674.31;;;1.95;100.00
49627;BME280;35527;54.616;39.786;2023-12-22T13:38:49;97666.00;;;1.90;100.00
49627;BME280;35527;54.616;39.786;2023-12-22T13:41:53;97669.59;;;1.84;100.00
49627;BME280;35527;54.616;39.786;2023-12-22T13:44:58;97700.22;;;2.06;100.00
49627;BME280;35527;54.616;39.786;2023-12-22T13:48:01;97674.34;;;1.93;100.00
49627;BME280;35527;54.616;39.786;2023-12-22T13:51:04;97677.47;;;2.00;100.00
49627;BME280;35527;54.616;39.786;2023-12-22T13:54:10;97679.53;;;1.92;100.00
49627;BME280;35527;54.616;39.786;2023-12-22T13:57:21;97671.09;;;1.90;100.00
49627;BME280;35527;54.616;39.786;2023-12-22T14:00:26;97664.25;;;1.90;100.00
49627;BME280;35527;54.616;39.786;2023-12-22T14:03:31;97639.69;;;1.88;100.00
49627;BME280;35527;54.616;39.786;2023-12-22T14:06:38;97652.53;;;1.86;100.00
49627;BME280;35527;54.616;39.786;2023-12-22T14:09:42;97620.31;;;1.84;100.00
49627;BME280;35527;54.616;39.786;2023-12-22T14:12:46;97642.38;;;1.85;100.00
49627;BME280;35527;54.616;39.786;2023-12-22T14:15:57;97630.22;;;1.91;100.00
49627;BME280;35527;54.616;39.786;2023-12-22T14:19:00;97626.78;;;1.92;100.00
49627;BME280;35527;54.616;39.786;2023-12-22T14:22:11;97607.50;;;1.85;100.00
49627;BME280;35527;54.616;39.786;2023-12-22T14:25:13;97611.22;;;1.98;100.00
49627;BME280;35527;54.616;39.786;2023-12-22T14:28:17;97583.75;;;2.05;100.00
49627;BME280;35527;54.616;39.786;2023-12-22T14:31:21;97610.81;;;1.87;100.00
49627;BME280;35527;54.616;39.786;2023-12-22T14:34:25;97610.59;;;1.93;100.00
49627;BME280;35527;54.616;39.786;2023-12-22T14:37:29;97624.84;;;1.97;100.00
49627;BME280;35527;54.616;39.786;2023-12-22T14:40:33;97564.41;;;1.99;100.00
49627;BME280;35527;54.616;39.786;2023-12-22T14:43:36;97589.91;;;1.99;100.00
49627;BME280;35527;54.616;39.786;2023-12-22T14:46:40;97573.28;;;2.11;100.00
49627;BME280;35527;54.616;39.786;2023-12-22T14:49:43;97559.31;;;1.99;100.00
49627;BME280;35527;54.616;39.786;2023-12-22T14:52:46;97576.59;;;1.93;100.00
49627;BME280;35527;54.616;39.786;2023-12-22T14:55:50;97557.78;;;2.16;100.00
49627;BME280;35527;54.616;39.786;2023-12-22T14:58:56;97548.91;;;2.45;100.00
49627;BME280;35527;54.616;39.786;2023-12-22T15:01:58;97554.84;;;2.45;100.00
49627;BME280;35527;54.616;39.786;2023-12-22T15:05:02;97545.84;;;2.37;100.00
49627;BME280;35527;54.616;39.786;2023-12-22T15:08:08;97553.56;;;2.56;100.00
49627;BME280;35527;54.616;39.786;2023-12-22T15:11:12;97553.41;;;2.59;100.00
49627;BME280;35527;54.616;39.786;2023-12-22T15:14:15;97553.31;;;2.41;100.00
49627;BME280;35527;54.616;39.786;2023-12-22T15:17:21;97557.13;;;2.52;100.00
49627;BME280;35527;54.616;39.786;2023-12-22T15:20:29;97543.56;;;2.31;100.00
49627;BME280;35527;54.616;39.786;2023-12-22T15:23:32;97560.34;;;2.36;100.00
49627;BME280;35527;54.616;39.786;2023-12-22T15:26:41;97559.34;;;2.59;100.00
49627;BME280;35527;54.616;39.786;2023-12-22T15:29:50;97542.22;;;2.42;100.00
49627;BME280;35527;54.616;39.786;2023-12-22T15:32:59;97543.81;;;2.45;100.00
49627;BME280;35527;54.616;39.786;2023-12-22T15:36:06;97557.06;;;2.53;100.00
49627;BME280;35527;54.616;39.786;2023-12-22T15:39:11;97548.03;;;2.65;100.00
49627;BME280;35527;54.616;39.786;2023-12-22T15:42:14;97553.91;;;2.67;100.00
49627;BME280;35527;54.616;39.786;2023-12-22T15:45:21;97557.56;;;2.80;100.00
49627;BME280;35527;54.616;39.786;2023-12-22T15:48:24;97557.03;;;2.74;100.00
49627;BME280;35527;54.616;39.786;2023-12-22T15:51:28;97554.16;;;2.81;100.00
49627;BME280;35527;54.616;39.786;2023-12-22T15:54:33;97552.56;;;2.98;100.00
49627;BME280;35527;54.616;39.786;2023-12-22T15:57:40;97538.06;;;2.79;100.00
49627;BME280;35527;54.616;39.786;2023-12-22T16:00:43;97526.38;;;2.74;100.00
49627;BME280;35527;54.616;39.786;2023-12-22T16:03:46;97541.50;;;2.78;100.00
49627;BME280;35527;54.616;39.786;2023-12-22T16:06:54;97523.00;;;2.73;100.00
49627;BME280;35527;54.616;39.786;2023-12-22T16:09:57;97514.97;;;2.62;100.00
49627;BME280;35527;54.616;39.786;2023-12-22T16:12:59;97522.59;;;2.82;100.00
49627;BME280;35527;54.616;39.786;2023-12-22T16:16:03;97537.03;;;3.02;100.00
49627;BME280;35527;54.616;39.786;2023-12-22T16:19:08;97526.59;;;2.88;100.00